sensor_id;sensor_type;location;lat;lon;timestamp;P1;durP1;ratioP1;P2;durP2;ratioP2
49962;SDS011;36180;57.678;11.910;2023-05-10T00:00:47;6.22;;;3.72;;
49962;SDS011;36180;57.678;11.910;2023-05-10T00:03:14;6.07;;;3.67;;
49962;SDS011;36180;57.678;11.910;2023-05-10T00:05:41;7.70;;;3.20;;
49962;SDS011;36180;57.678;11.910;2023-05-10T00:08:08;9.50;;;3.10;;
49962;SDS011;36180;57.678;11.910;2023-05-10T00:10:35;7.38;;;3.17;;
49962;SDS011;36180;57.678;11.910;2023-05-10T00:13:04;5.55;;;2.97;;
49962;SDS011;36180;57.678;11.910;2023-05-10T00:15:31;3.83;;;2.97;;
49962;SDS011;36180;57.678;11.910;2023-05-10T00:17:59;6.00;;;2.97;;
49962;SDS011;36180;57.678;11.910;2023-05-10T00:20:26;5.65;;;3.38;;
49962;SDS011;36180;57.678;11.910;2023-05-10T00:22:53;5.63;;;3.00;;
49962;SDS011;36180;57.678;11.910;2023-05-10T00:25:20;5.05;;;3.10;;
49962;SDS011;36180;57.678;11.910;2023-05-10T00:27:48;3.42;;;2.92;;
49962;SDS011;36180;57.678;11.910;2023-05-10T00:30:16;5.03;;;2.97;;
49962;SDS011;36180;57.678;11.910;2023-05-10T00:32:44;4.75;;;3.00;;
49962;SDS011;36180;57.678;11.910;2023-05-10T00:35:11;4.57;;;3.05;;
49962;SDS011;36180;57.678;11.910;2023-05-10T00:37:38;7.22;;;3.53;;
49962;SDS011;36180;57.678;11.910;2023-05-10T00:40:06;6.28;;;2.88;;
49962;SDS011;36180;57.678;11.910;2023-05-10T00:42:33;4.78;;;2.83;;
49962;SDS011;36180;57.678;11.910;2023-05-10T00:45:00;4.85;;;3.22;;
49962;SDS011;36180;57.678;11.910;2023-05-10T00:47:30;3.20;;;2.88;;
49962;SDS011;36180;57.678;11.910;2023-05-10T00:49:58;6.50;;;3.28;;
49962;SDS011;36180;57.678;11.910;2023-05-10T00:52:25;4.63;;;3.28;;
49962;SDS011;36180;57.678;11.910;2023-05-10T00:54:52;7.55;;;3.25;;
49962;SDS011;36180;57.678;11.910;2023-05-10T00:57:20;6.22;;;3.45;;
49962;SDS011;36180;57.678;11.910;2023-05-10T00:59:48;6.97;;;3.30;;
49962;SDS011;36180;57.678;11.910;2023-05-10T01:02:15;6.95;;;3.53;;
49962;SDS011;36180;57.678;11.910;2023-05-10T01:04:44;4.50;;;3.25;;
49962;SDS011;36180;57.678;11.910;2023-05-10T01:07:11;3.72;;;3.08;;
49962;SDS011;36180;57.678;11.910;2023-05-10T01:09:38;5.75;;;3.35;;
49962;SDS011;36180;57.678;11.910;2023-05-10T01:12:05;5.97;;;3.00;;
49962;SDS011;36180;57.678;11.910;2023-05-10T01:14:33;6.18;;;3.67;;
49962;SDS011;36180;57.678;11.910;2023-05-10T01:17:01;6.18;;;3.40;;
49962;SDS011;36180;57.678;11.910;2023-05-10T01:19:29;6.90;;;3.50;;
49962;SDS011;36180;57.678;11.910;2023-05-10T01:22:00;5.32;;;3.20;;
49962;SDS011;36180;57.678;11.910;2023-05-10T01:24:38;7.13;;;3.22;;
49962;SDS011;36180;57.678;11.910;2023-05-10T01:27:15;3.70;;;3.15;;
49962;SDS011;36180;57.678;11.910;2023-05-10T01:33:01;5.72;;;3.10;;
49962;SDS011;36180;57.678;11.910;2023-05-10T01:35:36;13.68;;;3.70;;
49962;SDS011;36180;57.678;11.910;2023-05-10T01:38:10;5.82;;;3.20;;
49962;SDS011;36180;57.678;11.910;2023-05-10T01:40:42;8.52;;;3.28;;
49962;SDS011;36180;57.678;11.910;2023-05-10T01:43:24;8.00;;;3.47;;
49962;SDS011;36180;57.678;11.910;2023-05-10T01:45:57;4.40;;;3.38;;
49962;SDS011;36180;57.678;11.910;2023-05-10T01:48:31;6.60;;;3.30;;
49962;SDS011;36180;57.678;11.910;2023-05-10T01:50:59;4.22;;;3.42;;
49962;SDS011;36180;57.678;11.910;2023-05-10T01:53:26;6.80;;;3.42;;
49962;SDS011;36180;57.678;11.910;2023-05-10T01:55:54;5.32;;;2.97;;
49962;SDS011;36180;57.678;11.910;2023-05-10T01:58:22;8.25;;;3.15;;
49962;SDS011;36180;57.678;11.910;2023-05-10T02:00:56;6.20;;;2.83;;
49962;SDS011;36180;57.678;11.910;2023-05-10T02:03:24;5.85;;;3.15;;
49962;SDS011;36180;57.678;11.910;2023-05-10T02:05:54;7.20;;;3.22;;
49962;SDS011;36180;57.678;11.910;2023-05-10T02:08:22;4.97;;;3.45;;
49962;SDS011;36180;57.678;11.910;2023-05-10T02:10:50;4.68;;;3.20;;
49962;SDS011;36180;57.678;11.910;2023-05-10T02:13:18;5.95;;;3.05;;
49962;SDS011;36180;57.678;11.910;2023-05-10T02:15:46;6.70;;;3.28;;
49962;SDS011;36180;57.678;11.910;2023-05-10T02:18:15;9.07;;;3.55;;
49962;SDS011;36180;57.678;11.910;2023-05-10T02:20:42;11.50;;;3.83;;
49962;SDS011;36180;57.678;11.910;2023-05-10T02:23:11;5.60;;;3.08;;
49962;SDS011;36180;57.678;11.910;2023-05-10T02:25:38;4.68;;;3.58;;
49962;SDS011;36180;57.678;11.910;2023-05-10T02:28:06;6.50;;;3.25;;
49962;SDS011;36180;57.678;11.910;2023-05-10T02:30:34;5.38;;;3.35;;
49962;SDS011;36180;57.678;11.910;2023-05-10T02:33:02;8.73;;;3.22;;
49962;SDS011;36180;57.678;11.910;2023-05-10T02:35:30;9.23;;;3.70;;
49962;SDS011;36180;57.678;11.910;2023-05-10T02:38:00;4.07;;;3.28;;
49962;SDS011;36180;57.678;11.910;2023-05-10T02:40:30;8.30;;;3.33;;
49962;SDS011;36180;57.678;11.910;2023-05-10T02:42:58;8.43;;;3.47;;
49962;SDS011;36180;57.678;11.910;2023-05-10T02:45:27;6.03;;;3.47;;
49962;SDS011;36180;57.678;11.910;2023-05-10T02:47:56;4.50;;;3.08;;
49962;SDS011;36180;57.678;11.910;2023-05-10T02:50:25;6.32;;;2.83;;
49962;SDS011;36180;57.678;11.910;2023-05-10T02:52:54;7.13;;;3.42;;
49962;SDS011;36180;57.678;11.910;2023-05-10T02:55:31;9.43;;;3.38;;
49962;SDS011;36180;57.678;11.910;2023-05-10T02:58:01;4.15;;;3.08;;
49962;SDS011;36180;57.678;11.910;2023-05-10T03:00:29;9.55;;;3.42;;
49962;SDS011;36180;57.678;11.910;2023-05-10T03:02:56;6.80;;;3.78;;
49962;SDS011;36180;57.678;11.910;2023-05-10T03:05:24;6.47;;;4.07;;
49962;SDS011;36180;57.678;11.910;2023-05-10T03:07:51;6.25;;;3.10;;
49962;SDS011;36180;57.678;11.910;2023-05-10T03:10:19;7.32;;;3.15;;
49962;SDS011;36180;57.678;11.910;2023-05-10T03:12:56;8.02;;;3.10;;
49962;SDS011;36180;57.678;11.910;2023-05-10T03:15:31;4.95;;;2.90;;
49962;SDS011;36180;57.678;11.910;2023-05-10T03:18:04;8.38;;;3.45;;
49962;SDS011;36180;57.678;11.910;2023-05-10T03:20:35;8.07;;;3.50;;
49962;SDS011;36180;57.678;11.910;2023-05-10T03:23:07;5.80;;;3.40;;
49962;SDS011;36180;57.678;11.910;2023-05-10T03:25:39;5.85;;;3.15;;
49962;SDS011;36180;57.678;11.910;2023-05-10T03:28:10;8.02;;;3.38;;
49962;SDS011;36180;57.678;11.910;2023-05-10T03:30:38;5.85;;;3.55;;
49962;SDS011;36180;57.678;11.910;2023-05-10T03:33:08;5.07;;;3.53;;
49962;SDS011;36180;57.678;11.910;2023-05-10T03:35:39;4.72;;;3.35;;
49962;SDS011;36180;57.678;11.910;2023-05-10T03:38:06;6.78;;;3.10;;
49962;SDS011;36180;57.678;11.910;2023-05-10T03:40:33;5.32;;;2.78;;
49962;SDS011;36180;57.678;11.910;2023-05-10T03:43:01;5.80;;;3.30;;
49962;SDS011;36180;57.678;11.910;2023-05-10T03:45:29;3.97;;;3.33;;
49962;SDS011;36180;57.678;11.910;2023-05-10T03:47:56;4.97;;;3.20;;
49962;SDS011;36180;57.678;11.910;2023-05-10T03:50:24;6.97;;;3.45;;
49962;SDS011;36180;57.678;11.910;2023-05-10T03:52:52;4.10;;;2.90;;
49962;SDS011;36180;57.678;11.910;2023-05-10T03:55:19;7.35;;;3.42;;
49962;SDS011;36180;57.678;11.910;2023-05-10T03:57:47;6.43;;;3.60;;
49962;SDS011;36180;57.678;11.910;2023-05-10T04:00:16;6.18;;;3.25;;
49962;SDS011;36180;57.678;11.910;2023-05-10T04:02:47;7.38;;;3.30;;
49962;SDS011;36180;57.678;11.910;2023-05-10T04:05:17;6.75;;;3.42;;
49962;SDS011;36180;57.678;11.910;2023-05-10T04:07:44;7.03;;;3.25;;
49962;SDS011;36180;57.678;11.910;2023-05-10T04:10:12;7.43;;;3.55;;
49962;SDS011;36180;57.678;11.910;2023-05-10T04:12:39;6.88;;;3.47;;
49962;SDS011;36180;57.678;11.910;2023-05-10T04:15:07;6.05;;;3.53;;
49962;SDS011;36180;57.678;11.910;2023-05-10T04:17:34;6.20;;;3.13;;
49962;SDS011;36180;57.678;11.910;2023-05-10T04:20:04;11.55;;;3.63;;
49962;SDS011;36180;57.678;11.910;2023-05-10T04:22:33;5.63;;;3.80;;
49962;SDS011;36180;57.678;11.910;2023-05-10T04:25:00;5.57;;;3.42;;
49962;SDS011;36180;57.678;11.910;2023-05-10T04:27:27;7.35;;;3.70;;
49962;SDS011;36180;57.678;11.910;2023-05-10T04:29:54;6.30;;;3.35;;
49962;SDS011;36180;57.678;11.910;2023-05-10T04:32:21;9.10;;;3.65;;
49962;SDS011;36180;57.678;11.910;2023-05-10T04:34:48;5.78;;;3.92;;
49962;SDS011;36180;57.678;11.910;2023-05-10T04:37:17;8.35;;;3.67;;
49962;SDS011;36180;57.678;11.910;2023-05-10T04:39:45;8.25;;;3.90;;
49962;SDS011;36180;57.678;11.910;2023-05-10T04:42:12;6.82;;;3.45;;
49962;SDS011;36180;57.678;11.910;2023-05-10T04:44:40;16.15;;;4.80;;
49962;SDS011;36180;57.678;11.910;2023-05-10T04:47:07;9.68;;;4.10;;
49962;SDS011;36180;57.678;11.910;2023-05-10T04:49:34;7.80;;;3.70;;
49962;SDS011;36180;57.678;11.910;2023-05-10T04:52:01;6.05;;;3.40;;
49962;SDS011;36180;57.678;11.910;2023-05-10T04:54:30;6.55;;;3.70;;
49962;SDS011;36180;57.678;11.910;2023-05-10T04:56:57;8.35;;;3.67;;
49962;SDS011;36180;57.678;11.910;2023-05-10T04:59:24;6.97;;;3.63;;
49962;SDS011;36180;57.678;11.910;2023-05-10T05:01:51;8.73;;;3.78;;
49962;SDS011;36180;57.678;11.910;2023-05-10T05:04:18;6.95;;;3.50;;
49962;SDS011;36180;57.678;11.910;2023-05-10T05:06:45;8.70;;;3.70;;
49962;SDS011;36180;57.678;11.910;2023-05-10T05:09:12;8.60;;;3.95;;
49962;SDS011;36180;57.678;11.910;2023-05-10T05:11:41;7.38;;;3.67;;
49962;SDS011;36180;57.678;11.910;2023-05-10T05:14:08;4.53;;;3.50;;
49962;SDS011;36180;57.678;11.910;2023-05-10T05:16:35;8.93;;;3.88;;
49962;SDS011;36180;57.678;11.910;2023-05-10T05:19:02;5.50;;;3.35;;
49962;SDS011;36180;57.678;11.910;2023-05-10T05:21:29;8.57;;;4.10;;
49962;SDS011;36180;57.678;11.910;2023-05-10T05:23:57;7.97;;;3.90;;
49962;SDS011;36180;57.678;11.910;2023-05-10T05:26:24;5.88;;;3.80;;
49962;SDS011;36180;57.678;11.910;2023-05-10T05:28:52;5.55;;;3.55;;
49962;SDS011;36180;57.678;11.910;2023-05-10T05:31:20;9.95;;;3.90;;
49962;SDS011;36180;57.678;11.910;2023-05-10T05:33:47;5.75;;;3.92;;
49962;SDS011;36180;57.678;11.910;2023-05-10T05:36:14;6.80;;;3.50;;
49962;SDS011;36180;57.678;11.910;2023-05-10T05:38:41;9.93;;;3.83;;
49962;SDS011;36180;57.678;11.910;2023-05-10T05:41:11;7.53;;;3.70;;
49962;SDS011;36180;57.678;11.910;2023-05-10T05:43:38;9.73;;;3.30;;
49962;SDS011;36180;57.678;11.910;2023-05-10T05:46:06;5.93;;;3.42;;
49962;SDS011;36180;57.678;11.910;2023-05-10T05:48:33;7.40;;;4.35;;
49962;SDS011;36180;57.678;11.910;2023-05-10T05:51:00;9.00;;;4.40;;
49962;SDS011;36180;57.678;11.910;2023-05-10T05:53:27;6.50;;;3.75;;
49962;SDS011;36180;57.678;11.910;2023-05-10T05:55:55;5.38;;;3.58;;
49962;SDS011;36180;57.678;11.910;2023-05-10T05:58:23;6.68;;;3.72;;
49962;SDS011;36180;57.678;11.910;2023-05-10T06:00:50;11.35;;;3.53;;
49962;SDS011;36180;57.678;11.910;2023-05-10T06:03:19;5.63;;;3.63;;
49962;SDS011;36180;57.678;11.910;2023-05-10T06:05:46;8.32;;;3.63;;
49962;SDS011;36180;57.678;11.910;2023-05-10T06:08:13;6.15;;;3.90;;
49962;SDS011;36180;57.678;11.910;2023-05-10T06:10:40;7.13;;;4.07;;
49962;SDS011;36180;57.678;11.910;2023-05-10T06:13:07;9.13;;;3.97;;
49962;SDS011;36180;57.678;11.910;2023-05-10T06:15:35;8.27;;;3.72;;
49962;SDS011;36180;57.678;11.910;2023-05-10T06:18:02;7.88;;;4.07;;
49962;SDS011;36180;57.678;11.910;2023-05-10T06:20:30;6.95;;;3.40;;
49962;SDS011;36180;57.678;11.910;2023-05-10T06:22:57;5.05;;;3.78;;
49962;SDS011;36180;57.678;11.910;2023-05-10T06:25:24;5.80;;;3.25;;
49962;SDS011;36180;57.678;11.910;2023-05-10T06:27:52;8.63;;;3.88;;
49962;SDS011;36180;57.678;11.910;2023-05-10T06:30:23;10.02;;;3.90;;
49962;SDS011;36180;57.678;11.910;2023-05-10T06:32:53;5.80;;;3.65;;
49962;SDS011;36180;57.678;11.910;2023-05-10T06:35:20;8.10;;;3.60;;
49962;SDS011;36180;57.678;11.910;2023-05-10T06:37:49;7.05;;;3.80;;
49962;SDS011;36180;57.678;11.910;2023-05-10T06:40:16;7.50;;;3.63;;
49962;SDS011;36180;57.678;11.910;2023-05-10T06:42:44;8.68;;;4.25;;
49962;SDS011;36180;57.678;11.910;2023-05-10T06:45:11;6.28;;;3.90;;
49962;SDS011;36180;57.678;11.910;2023-05-10T06:47:38;8.30;;;3.55;;
49962;SDS011;36180;57.678;11.910;2023-05-10T06:50:06;10.00;;;3.60;;
49962;SDS011;36180;57.678;11.910;2023-05-10T06:52:33;8.32;;;3.53;;
49962;SDS011;36180;57.678;11.910;2023-05-10T06:55:02;6.00;;;3.65;;
49962;SDS011;36180;57.678;11.910;2023-05-10T06:57:30;8.05;;;3.88;;
49962;SDS011;36180;57.678;11.910;2023-05-10T06:59:57;7.60;;;3.80;;
49962;SDS011;36180;57.678;11.910;2023-05-10T07:02:24;10.88;;;4.03;;
49962;SDS011;36180;57.678;11.910;2023-05-10T07:04:51;8.93;;;3.50;;
49962;SDS011;36180;57.678;11.910;2023-05-10T07:07:18;10.93;;;3.60;;
49962;SDS011;36180;57.678;11.910;2023-05-10T07:09:45;5.30;;;3.72;;
49962;SDS011;36180;57.678;11.910;2023-05-10T07:12:14;7.20;;;3.53;;
49962;SDS011;36180;57.678;11.910;2023-05-10T07:14:41;7.60;;;3.65;;
49962;SDS011;36180;57.678;11.910;2023-05-10T07:17:08;5.95;;;3.30;;
49962;SDS011;36180;57.678;11.910;2023-05-10T07:19:35;7.03;;;3.83;;
49962;SDS011;36180;57.678;11.910;2023-05-10T07:22:02;6.00;;;3.55;;
49962;SDS011;36180;57.678;11.910;2023-05-10T07:24:30;6.90;;;3.70;;
49962;SDS011;36180;57.678;11.910;2023-05-10T07:26:58;4.53;;;3.58;;
49962;SDS011;36180;57.678;11.910;2023-05-10T07:29:26;12.35;;;3.78;;
49962;SDS011;36180;57.678;11.910;2023-05-10T07:31:53;7.13;;;3.38;;
49962;SDS011;36180;57.678;11.910;2023-05-10T07:34:20;10.35;;;3.47;;
49962;SDS011;36180;57.678;11.910;2023-05-10T07:36:48;7.53;;;3.78;;
49962;SDS011;36180;57.678;11.910;2023-05-10T07:39:17;9.43;;;4.22;;
49962;SDS011;36180;57.678;11.910;2023-05-10T07:41:45;6.13;;;3.85;;
49962;SDS011;36180;57.678;11.910;2023-05-10T07:44:12;8.25;;;3.85;;
49962;SDS011;36180;57.678;11.910;2023-05-10T07:46:41;5.57;;;3.30;;
49962;SDS011;36180;57.678;11.910;2023-05-10T07:49:08;5.25;;;3.70;;
49962;SDS011;36180;57.678;11.910;2023-05-10T07:51:35;6.50;;;3.47;;
49962;SDS011;36180;57.678;11.910;2023-05-10T07:54:02;5.93;;;3.63;;
49962;SDS011;36180;57.678;11.910;2023-05-10T07:56:29;6.70;;;3.70;;
49962;SDS011;36180;57.678;11.910;2023-05-10T07:58:58;9.63;;;3.70;;
49962;SDS011;36180;57.678;11.910;2023-05-10T08:01:25;7.43;;;3.40;;
49962;SDS011;36180;57.678;11.910;2023-05-10T08:03:54;8.48;;;3.72;;
49962;SDS011;36180;57.678;11.910;2023-05-10T08:06:21;5.70;;;3.53;;
49962;SDS011;36180;57.678;11.910;2023-05-10T08:08:48;8.30;;;3.88;;
49962;SDS011;36180;57.678;11.910;2023-05-10T08:11:16;7.25;;;3.67;;
49962;SDS011;36180;57.678;11.910;2023-05-10T08:13:43;7.55;;;3.40;;
49962;SDS011;36180;57.678;11.910;2023-05-10T08:16:10;6.32;;;3.80;;
49962;SDS011;36180;57.678;11.910;2023-05-10T08:18:37;3.75;;;3.40;;
49962;SDS011;36180;57.678;11.910;2023-05-10T08:21:06;6.28;;;3.78;;
49962;SDS011;36180;57.678;11.910;2023-05-10T08:23:33;6.95;;;3.63;;
49962;SDS011;36180;57.678;11.910;2023-05-10T08:26:00;19.70;;;4.03;;
49962;SDS011;36180;57.678;11.910;2023-05-10T08:28:27;7.60;;;3.63;;
49962;SDS011;36180;57.678;11.910;2023-05-10T08:30:54;10.10;;;4.00;;
49962;SDS011;36180;57.678;11.910;2023-05-10T08:33:21;6.65;;;3.83;;
49962;SDS011;36180;57.678;11.910;2023-05-10T08:35:49;8.73;;;3.72;;
49962;SDS011;36180;57.678;11.910;2023-05-10T08:38:17;9.05;;;3.63;;
49962;SDS011;36180;57.678;11.910;2023-05-10T08:40:44;6.60;;;3.90;;
49962;SDS011;36180;57.678;11.910;2023-05-10T08:43:12;7.25;;;3.65;;
49962;SDS011;36180;57.678;11.910;2023-05-10T08:45:41;4.57;;;3.33;;
49962;SDS011;36180;57.678;11.910;2023-05-10T08:48:10;5.22;;;3.75;;
49962;SDS011;36180;57.678;11.910;2023-05-10T08:50:38;6.50;;;4.13;;
49962;SDS011;36180;57.678;11.910;2023-05-10T08:53:06;5.85;;;3.10;;
49962;SDS011;36180;57.678;11.910;2023-05-10T08:55:38;7.00;;;3.65;;
49962;SDS011;36180;57.678;11.910;2023-05-10T08:58:07;6.82;;;3.92;;
49962;SDS011;36180;57.678;11.910;2023-05-10T09:00:35;9.10;;;4.05;;
49962;SDS011;36180;57.678;11.910;2023-05-10T09:03:04;6.03;;;3.50;;
49962;SDS011;36180;57.678;11.910;2023-05-10T09:05:32;5.97;;;3.70;;
49962;SDS011;36180;57.678;11.910;2023-05-10T09:07:59;6.82;;;3.25;;
49962;SDS011;36180;57.678;11.910;2023-05-10T09:10:26;9.35;;;3.70;;
49962;SDS011;36180;57.678;11.910;2023-05-10T09:12:56;5.22;;;3.47;;
49962;SDS011;36180;57.678;11.910;2023-05-10T09:15:23;4.80;;;3.60;;
49962;SDS011;36180;57.678;11.910;2023-05-10T09:17:51;7.15;;;3.45;;
49962;SDS011;36180;57.678;11.910;2023-05-10T09:20:18;6.63;;;3.50;;
49962;SDS011;36180;57.678;11.910;2023-05-10T09:22:45;11.05;;;3.72;;
49962;SDS011;36180;57.678;11.910;2023-05-10T09:25:13;6.75;;;3.75;;
49962;SDS011;36180;57.678;11.910;2023-05-10T09:27:41;5.13;;;3.35;;
49962;SDS011;36180;57.678;11.910;2023-05-10T09:30:14;6.18;;;3.10;;
49962;SDS011;36180;57.678;11.910;2023-05-10T09:32:42;4.68;;;3.70;;
49962;SDS011;36180;57.678;11.910;2023-05-10T09:35:11;7.90;;;3.67;;
49962;SDS011;36180;57.678;11.910;2023-05-10T09:37:40;7.60;;;3.20;;
49962;SDS011;36180;57.678;11.910;2023-05-10T09:40:10;8.73;;;3.67;;
49962;SDS011;36180;57.678;11.910;2023-05-10T09:42:39;8.32;;;3.67;;
49962;SDS011;36180;57.678;11.910;2023-05-10T09:45:08;4.80;;;3.53;;
49962;SDS011;36180;57.678;11.910;2023-05-10T09:47:37;12.88;;;3.63;;
49962;SDS011;36180;57.678;11.910;2023-05-10T09:50:04;6.95;;;3.67;;
49962;SDS011;36180;57.678;11.910;2023-05-10T09:52:45;6.43;;;3.45;;
49962;SDS011;36180;57.678;11.910;2023-05-10T09:55:13;8.95;;;3.65;;
49962;SDS011;36180;57.678;11.910;2023-05-10T09:57:41;5.38;;;3.30;;
49962;SDS011;36180;57.678;11.910;2023-05-10T10:00:08;6.47;;;3.60;;
49962;SDS011;36180;57.678;11.910;2023-05-10T10:02:40;8.05;;;3.60;;
49962;SDS011;36180;57.678;11.910;2023-05-10T10:05:08;5.82;;;3.53;;
49962;SDS011;36180;57.678;11.910;2023-05-10T10:07:35;5.65;;;3.45;;
49962;SDS011;36180;57.678;11.910;2023-05-10T10:10:02;6.80;;;3.67;;
49962;SDS011;36180;57.678;11.910;2023-05-10T10:12:30;5.50;;;3.60;;
49962;SDS011;36180;57.678;11.910;2023-05-10T10:14:57;5.97;;;3.88;;
49962;SDS011;36180;57.678;11.910;2023-05-10T10:17:26;10.73;;;3.97;;
49962;SDS011;36180;57.678;11.910;2023-05-10T10:19:56;8.77;;;4.05;;
49962;SDS011;36180;57.678;11.910;2023-05-10T10:22:23;4.05;;;3.42;;
49962;SDS011;36180;57.678;11.910;2023-05-10T10:24:50;6.03;;;3.80;;
49962;SDS011;36180;57.678;11.910;2023-05-10T10:27:20;6.25;;;3.88;;
49962;SDS011;36180;57.678;11.910;2023-05-10T10:29:52;8.23;;;3.50;;
49962;SDS011;36180;57.678;11.910;2023-05-10T10:32:30;9.25;;;3.70;;
49962;SDS011;36180;57.678;11.910;2023-05-10T10:35:05;4.93;;;3.42;;
49962;SDS011;36180;57.678;11.910;2023-05-10T10:37:43;6.88;;;3.70;;
49962;SDS011;36180;57.678;11.910;2023-05-10T10:42:56;6.10;;;3.55;;
49962;SDS011;36180;57.678;11.910;2023-05-10T10:45:24;6.40;;;3.50;;
49962;SDS011;36180;57.678;11.910;2023-05-10T10:50:51;9.27;;;3.42;;
49962;SDS011;36180;57.678;11.910;2023-05-10T10:53:23;3.33;;;2.80;;
49962;SDS011;36180;57.678;11.910;2023-05-10T10:56:02;6.43;;;3.40;;
49962;SDS011;36180;57.678;11.910;2023-05-10T10:58:33;9.30;;;3.53;;
49962;SDS011;36180;57.678;11.910;2023-05-10T11:01:13;7.43;;;3.70;;
49962;SDS011;36180;57.678;11.910;2023-05-10T11:03:54;4.93;;;3.15;;
49962;SDS011;36180;57.678;11.910;2023-05-10T11:06:46;5.60;;;3.28;;
49962;SDS011;36180;57.678;11.910;2023-05-10T11:09:13;5.05;;;3.08;;
49962;SDS011;36180;57.678;11.910;2023-05-10T11:11:50;4.43;;;3.33;;
49962;SDS011;36180;57.678;11.910;2023-05-10T11:14:20;5.18;;;3.58;;
49962;SDS011;36180;57.678;11.910;2023-05-10T11:16:48;7.53;;;3.13;;
49962;SDS011;36180;57.678;11.910;2023-05-10T11:19:15;7.18;;;3.60;;
49962;SDS011;36180;57.678;11.910;2023-05-10T11:21:47;6.43;;;3.35;;
49962;SDS011;36180;57.678;11.910;2023-05-10T11:24:15;5.78;;;3.60;;
49962;SDS011;36180;57.678;11.910;2023-05-10T11:26:43;9.18;;;3.80;;
49962;SDS011;36180;57.678;11.910;2023-05-10T11:29:12;7.35;;;3.65;;
49962;SDS011;36180;57.678;11.910;2023-05-10T11:31:42;7.65;;;3.60;;
49962;SDS011;36180;57.678;11.910;2023-05-10T11:34:10;4.28;;;3.03;;
49962;SDS011;36180;57.678;11.910;2023-05-10T11:36:39;7.10;;;3.13;;
49962;SDS011;36180;57.678;11.910;2023-05-10T11:39:07;3.95;;;2.60;;
49962;SDS011;36180;57.678;11.910;2023-05-10T11:41:36;8.25;;;3.72;;
49962;SDS011;36180;57.678;11.910;2023-05-10T11:44:03;6.35;;;3.30;;
49962;SDS011;36180;57.678;11.910;2023-05-10T11:46:30;7.78;;;3.20;;
49962;SDS011;36180;57.678;11.910;2023-05-10T11:48:58;5.00;;;3.13;;
49962;SDS011;36180;57.678;11.910;2023-05-10T11:51:29;6.40;;;3.08;;
49962;SDS011;36180;57.678;11.910;2023-05-10T11:53:58;4.22;;;3.33;;
49962;SDS011;36180;57.678;11.910;2023-05-10T11:56:27;6.53;;;3.30;;
49962;SDS011;36180;57.678;11.910;2023-05-10T11:58:54;7.40;;;3.00;;
49962;SDS011;36180;57.678;11.910;2023-05-10T12:01:22;4.78;;;2.72;;
49962;SDS011;36180;57.678;11.910;2023-05-10T12:03:50;5.47;;;2.88;;
49962;SDS011;36180;57.678;11.910;2023-05-10T12:06:18;3.60;;;2.72;;
49962;SDS011;36180;57.678;11.910;2023-05-10T12:08:47;3.45;;;2.83;;
49962;SDS011;36180;57.678;11.910;2023-05-10T12:11:17;3.75;;;3.40;;
49962;SDS011;36180;57.678;11.910;2023-05-10T12:13:47;7.10;;;3.30;;
49962;SDS011;36180;57.678;11.910;2023-05-10T12:16:15;6.63;;;2.88;;
49962;SDS011;36180;57.678;11.910;2023-05-10T12:18:43;6.32;;;2.92;;
49962;SDS011;36180;57.678;11.910;2023-05-10T12:21:11;5.75;;;2.38;;
49962;SDS011;36180;57.678;11.910;2023-05-10T12:23:38;8.25;;;2.80;;
49962;SDS011;36180;57.678;11.910;2023-05-10T12:26:06;6.97;;;2.40;;
49962;SDS011;36180;57.678;11.910;2023-05-10T12:28:33;3.00;;;2.03;;
49962;SDS011;36180;57.678;11.910;2023-05-10T12:31:02;3.92;;;2.53;;
49962;SDS011;36180;57.678;11.910;2023-05-10T12:33:34;7.50;;;2.70;;
49962;SDS011;36180;57.678;11.910;2023-05-10T12:36:02;5.40;;;2.83;;
49962;SDS011;36180;57.678;11.910;2023-05-10T12:38:31;4.55;;;2.55;;
49962;SDS011;36180;57.678;11.910;2023-05-10T12:40:59;3.33;;;2.05;;
49962;SDS011;36180;57.678;11.910;2023-05-10T12:43:27;3.28;;;2.35;;
49962;SDS011;36180;57.678;11.910;2023-05-10T12:45:54;6.40;;;2.40;;
49962;SDS011;36180;57.678;11.910;2023-05-10T12:48:23;5.07;;;2.67;;
49962;SDS011;36180;57.678;11.910;2023-05-10T12:50:50;3.38;;;2.30;;
49962;SDS011;36180;57.678;11.910;2023-05-10T12:53:17;10.27;;;3.05;;
49962;SDS011;36180;57.678;11.910;2023-05-10T12:55:44;5.82;;;3.22;;
49962;SDS011;36180;57.678;11.910;2023-05-10T12:58:11;13.23;;;3.80;;
49962;SDS011;36180;57.678;11.910;2023-05-10T13:00:38;7.45;;;3.58;;
49962;SDS011;36180;57.678;11.910;2023-05-10T13:03:06;10.93;;;3.05;;
49962;SDS011;36180;57.678;11.910;2023-05-10T13:05:34;8.27;;;3.60;;
49962;SDS011;36180;57.678;11.910;2023-05-10T13:08:01;6.38;;;3.50;;
49962;SDS011;36180;57.678;11.910;2023-05-10T13:10:28;4.70;;;2.88;;
49962;SDS011;36180;57.678;11.910;2023-05-10T13:12:56;6.60;;;3.50;;
49962;SDS011;36180;57.678;11.910;2023-05-10T13:15:23;11.73;;;3.88;;
49962;SDS011;36180;57.678;11.910;2023-05-10T13:17:51;8.73;;;3.63;;
49962;SDS011;36180;57.678;11.910;2023-05-10T13:20:18;5.40;;;3.17;;
49962;SDS011;36180;57.678;11.910;2023-05-10T13:22:47;8.10;;;3.78;;
49962;SDS011;36180;57.678;11.910;2023-05-10T13:25:14;7.10;;;3.20;;
49962;SDS011;36180;57.678;11.910;2023-05-10T13:27:41;8.48;;;3.10;;
49962;SDS011;36180;57.678;11.910;2023-05-10T13:30:08;8.57;;;3.17;;
49962;SDS011;36180;57.678;11.910;2023-05-10T13:32:36;6.75;;;3.28;;
49962;SDS011;36180;57.678;11.910;2023-05-10T13:35:04;9.35;;;3.65;;
49962;SDS011;36180;57.678;11.910;2023-05-10T13:37:31;3.80;;;3.05;;
49962;SDS011;36180;57.678;11.910;2023-05-10T13:40:02;11.13;;;2.95;;
49962;SDS011;36180;57.678;11.910;2023-05-10T13:42:30;8.80;;;3.10;;
49962;SDS011;36180;57.678;11.910;2023-05-10T13:44:58;7.68;;;3.10;;
49962;SDS011;36180;57.678;11.910;2023-05-10T13:47:26;5.60;;;2.70;;
49962;SDS011;36180;57.678;11.910;2023-05-10T13:49:53;4.82;;;2.85;;
49962;SDS011;36180;57.678;11.910;2023-05-10T13:52:20;9.02;;;2.85;;
49962;SDS011;36180;57.678;11.910;2023-05-10T13:54:47;4.40;;;3.05;;
49962;SDS011;36180;57.678;11.910;2023-05-10T13:57:15;4.68;;;3.15;;
49962;SDS011;36180;57.678;11.910;2023-05-10T13:59:43;9.10;;;2.40;;
49962;SDS011;36180;57.678;11.910;2023-05-10T14:02:10;5.38;;;2.78;;
49962;SDS011;36180;57.678;11.910;2023-05-10T14:04:38;4.18;;;2.47;;
49962;SDS011;36180;57.678;11.910;2023-05-10T14:07:05;4.20;;;2.80;;
49962;SDS011;36180;57.678;11.910;2023-05-10T14:09:32;3.30;;;2.28;;
49962;SDS011;36180;57.678;11.910;2023-05-10T14:11:59;4.72;;;2.55;;
49962;SDS011;36180;57.678;11.910;2023-05-10T14:14:27;5.63;;;2.35;;
49962;SDS011;36180;57.678;11.910;2023-05-10T14:16:54;5.00;;;2.20;;
49962;SDS011;36180;57.678;11.910;2023-05-10T14:19:21;3.90;;;2.35;;
49962;SDS011;36180;57.678;11.910;2023-05-10T14:21:48;3.17;;;2.63;;
49962;SDS011;36180;57.678;11.910;2023-05-10T14:24:17;5.30;;;2.38;;
49962;SDS011;36180;57.678;11.910;2023-05-10T14:26:44;4.47;;;2.60;;
49962;SDS011;36180;57.678;11.910;2023-05-10T14:29:11;5.18;;;2.40;;
49962;SDS011;36180;57.678;11.910;2023-05-10T14:31:39;4.85;;;2.40;;
49962;SDS011;36180;57.678;11.910;2023-05-10T14:34:06;8.50;;;2.92;;
49962;SDS011;36180;57.678;11.910;2023-05-10T14:36:33;3.83;;;2.90;;
49962;SDS011;36180;57.678;11.910;2023-05-10T14:39:00;3.53;;;2.20;;
49962;SDS011;36180;57.678;11.910;2023-05-10T14:41:28;5.35;;;2.83;;
49962;SDS011;36180;57.678;11.910;2023-05-10T14:43:55;9.77;;;3.35;;
49962;SDS011;36180;57.678;11.910;2023-05-10T14:46:22;6.85;;;3.55;;
49962;SDS011;36180;57.678;11.910;2023-05-10T14:48:50;9.20;;;3.28;;